Time;durP1;ratioP1;P1;durP2;ratioP2;P2;SDS_P1;SDS_P2;PMS_P1;PMS_P2;Temp;Humidity;BMP_temperature;BMP_pressure;BME280_temperature;BME280_humidity;BME280_pressure;Samples;Min_cycle;Max_cycle;Signal;HPM_P1;HPM_P2
2023/08/30 00:00:05;;;;;;;90.10;44.27;;;17.40;81.50;;;;;;5036406;28;20268;-82
2023/08/30 00:02:31;;;;;;;89.97;45.43;;;17.40;79.00;;;;;;5036496;28;20248;-82
2023/08/30 00:05:00;;;;;;;87.33;41.87;;;17.30;83.50;;;;;;5036104;28;20439;-82
2023/08/30 00:07:26;;;;;;;88.17;46.27;;;17.40;81.80;;;;;;5036095;28;20244;-82
2023/08/30 00:09:52;;;;;;;89.70;45.20;;;17.40;82.50;;;;;;5036583;28;20484;-82
2023/08/30 00:12:17;;;;;;;86.20;38.97;;;17.40;83.50;;;;;;5037003;28;20518;-82
2023/08/30 00:14:43;;;;;;;90.63;45.77;;;17.40;83.80;;;;;;5036061;28;20161;-82
2023/08/30 00:17:09;;;;;;;89.23;44.30;;;17.40;86.00;;;;;;5036715;28;20223;-82
2023/08/30 00:19:34;;;;;;;87.63;45.13;;;17.30;84.90;;;;;;5022365;28;20255;-82
2023/08/30 00:22:00;;;;;;;91.30;48.97;;;17.30;86.90;;;;;;5040374;28;20568;-82
2023/08/30 00:24:26;;;;;;;88.20;45.23;;;17.40;88.30;;;;;;5022679;28;20177;-82
2023/08/30 00:26:51;;;;;;;89.97;48.27;;;17.40;88.90;;;;;;5039989;28;20652;-82
2023/08/30 00:29:17;;;;;;;87.13;41.03;;;17.40;90.60;;;;;;5040023;28;20642;-82
2023/08/30 00:31:43;;;;;;;90.00;45.67;;;17.40;91.30;;;;;;5039866;28;20177;-82
2023/08/30 00:34:08;;;;;;;96.83;43.83;;;17.40;91.70;;;;;;5040283;28;20158;-82
2023/08/30 00:36:34;;;;;;;85.67;38.00;;;17.40;91.90;;;;;;5022006;28;20177;-82
2023/08/30 00:39:00;;;;;;;86.17;39.80;;;17.40;93.50;;;;;;5040392;28;20161;-82
2023/08/30 00:41:25;;;;;;;89.13;41.30;;;17.40;93.40;;;;;;5039878;28;20228;-82
2023/08/30 00:43:51;;;;;;;84.83;39.13;;;17.40;93.20;;;;;;5040272;28;20173;-82
2023/08/30 00:46:17;;;;;;;84.03;36.30;;;17.40;93.70;;;;;;5039704;28;20169;-82
2023/08/30 00:48:44;;;;;;;87.10;40.97;;;17.40;93.50;;;;;;5039863;28;20649;-82
2023/08/30 00:51:10;;;;;;;85.47;39.43;;;17.40;94.40;;;;;;5039927;28;20185;-82
2023/08/30 00:53:35;;;;;;;89.20;40.03;;;17.40;94.30;;;;;;5039897;28;20443;-82
2023/08/30 00:56:01;;;;;;;85.37;38.43;;;17.40;95.10;;;;;;5039985;28;20162;-82
2023/08/30 00:58:28;;;;;;;89.43;44.17;;;17.40;96.10;;;;;;5039767;28;20625;-82
2023/08/30 01:00:54;;;;;;;87.67;40.93;;;17.30;96.90;;;;;;5021813;28;20481;-82
2023/08/30 01:03:21;;;;;;;83.00;33.37;;;17.30;95.20;;;;;;5039395;28;20404;-82
2023/08/30 01:05:47;;;;;;;87.27;37.80;;;17.30;96.10;;;;;;5038818;28;20818;-82
2023/08/30 01:08:13;;;;;;;82.13;30.70;;;17.30;97.80;;;;;;5040149;28;20396;-82
2023/08/30 01:10:57;;;;;;;83.53;33.73;;;17.30;98.40;;;;;;5021845;28;20193;-82
2023/08/30 01:13:27;;;;;;;83.33;35.83;;;17.30;97.70;;;;;;5039314;28;20408;-82
2023/08/30 01:15:54;;;;;;;85.80;35.27;;;17.30;97.20;;;;;;5039072;28;20388;-82
2023/08/30 01:18:26;;;;;;;81.03;30.77;;;17.40;98.20;;;;;;5039118;28;20431;-82
2023/08/30 01:20:53;;;;;;;82.40;33.63;;;17.40;98.50;;;;;;5039717;28;20412;-82
2023/08/30 01:23:34;;;;;;;83.70;37.27;;;17.40;97.00;;;;;;5039260;28;21009;-82
2023/08/30 01:26:14;;;;;;;81.83;31.37;;;17.40;96.10;;;;;;5021702;28;20780;-82
2023/08/30 01:28:40;;;;;;;84.10;32.77;;;17.30;97.00;;;;;;5039057;28;20392;-82
2023/08/30 01:31:13;;;;;;;83.17;34.10;;;17.30;98.30;;;;;;5021269;28;20432;-82
2023/08/30 01:33:39;;;;;;;83.63;33.13;;;17.30;98.30;;;;;;5038939;28;20150;-82
2023/08/30 01:36:05;;;;;;;87.30;34.53;;;17.30;98.10;;;;;;5039270;28;20814;-82
2023/08/30 01:38:32;;;;;;;83.00;32.87;;;17.30;97.60;;;;;;5039133;28;20396;-82
2023/08/30 01:40:59;;;;;;;83.90;35.63;;;17.30;97.60;;;;;;5038657;28;20440;-82
2023/08/30 01:43:30;;;;;;;85.40;39.43;;;17.20;97.50;;;;;;5038192;28;20586;-82
2023/08/30 01:45:58;;;;;;;84.63;35.77;;;17.20;97.70;;;;;;5039099;28;20381;-82
2023/08/30 01:48:26;;;;;;;85.33;37.90;;;17.20;96.50;;;;;;5039325;28;20400;-82
2023/08/30 01:50:51;;;;;;;85.47;35.87;;;17.30;95.90;;;;;;5039003;28;20416;-82
2023/08/30 01:53:17;;;;;;;88.03;35.83;;;17.20;95.80;;;;;;5038943;28;20745;-82
2023/08/30 01:55:43;;;;;;;84.97;36.07;;;17.10;96.00;;;;;;5038576;28;20181;-82
2023/08/30 01:58:10;;;;;;;81.10;30.73;;;17.10;96.50;;;;;;5038852;28;20462;-82
2023/08/30 02:00:36;;;;;;;82.83;34.07;;;17.10;96.80;;;;;;5021194;28;20864;-82
2023/08/30 02:03:12;;;;;;;83.60;32.03;;;17.10;97.20;;;;;;5038576;28;20935;-82
2023/08/30 02:06:02;;;;;;;81.63;35.03;;;17.10;96.20;;;;;;5038246;28;20400;-82
2023/08/30 02:08:37;;;;;;;84.07;41.87;;;17.10;96.80;;;;;;5038433;28;20416;-82
2023/08/30 02:11:07;;;;;;;90.77;43.07;;;17.00;96.20;;;;;;5038207;28;20418;-82
2023/08/30 02:13:34;;;;;;;85.43;42.27;;;17.00;95.60;;;;;;5038513;28;20381;-82
2023/08/30 02:16:01;;;;;;;84.30;40.63;;;17.00;94.90;;;;;;5037800;28;20404;-82
2023/08/30 02:18:27;;;;;;;84.27;40.07;;;17.00;94.20;;;;;;5038726;28;20407;-82
2023/08/30 02:20:53;;;;;;;86.97;43.03;;;16.90;94.30;;;;;;5039819;28;20428;-82
2023/08/30 02:23:19;;;;;;;88.80;47.83;;;16.90;94.30;;;;;;5024068;28;20444;-82
2023/08/30 02:25:44;;;;;;;88.17;46.97;;;16.90;93.70;;;;;;5023708;28;20942;-82
2023/08/30 02:28:10;;;;;;;86.43;44.40;;;16.80;93.60;;;;;;5040670;28;20166;-82
2023/08/30 02:30:36;;;;;;;86.33;42.07;;;16.80;93.50;;;;;;5040672;28;20199;-82
2023/08/30 02:33:02;;;;;;;89.50;46.17;;;16.80;93.30;;;;;;5045464;28;20400;-81
2023/08/30 02:35:27;;;;;;;86.97;44.87;;;16.70;93.60;;;;;;5046703;28;20712;-82
2023/08/30 02:37:53;;;;;;;85.10;44.13;;;16.70;93.40;;;;;;5040936;28;20256;-82
2023/08/30 02:40:18;;;;;;;85.93;46.20;;;16.70;93.00;;;;;;5038647;28;20201;-82
2023/08/30 02:42:44;;;;;;;85.47;44.17;;;16.70;93.00;;;;;;5038117;28;20192;-82
2023/08/30 02:45:12;;;;;;;87.87;46.43;;;16.60;93.80;;;;;;5037585;28;20173;-82
2023/08/30 02:47:38;;;;;;;86.93;45.83;;;16.60;94.60;;;;;;5037929;28;20161;-82
2023/08/30 02:50:04;;;;;;;89.37;49.60;;;16.60;92.80;;;;;;5037465;28;20432;-82
2023/08/30 02:52:30;;;;;;;89.00;48.73;;;16.60;93.30;;;;;;5037999;28;20212;-82
2023/08/30 02:54:55;;;;;;;88.83;44.27;;;16.50;94.10;;;;;;5037371;28;20404;-82
2023/08/30 02:57:21;;;;;;;88.57;47.13;;;16.50;93.20;;;;;;5037235;28;20195;-82
2023/08/30 02:59:47;;;;;;;87.23;48.23;;;16.50;92.90;;;;;;5037410;28;20207;-82
2023/08/30 03:02:12;;;;;;;85.87;44.93;;;16.50;92.40;;;;;;5037469;28;20604;-82
2023/08/30 03:04:38;;;;;;;86.93;46.60;;;16.40;93.60;;;;;;5036971;28;20649;-82
2023/08/30 03:07:04;;;;;;;87.10;47.73;;;16.50;92.30;;;;;;5019546;28;20169;-82
2023/08/30 03:09:29;;;;;;;88.37;51.30;;;16.40;92.50;;;;;;5036278;28;20941;-82
2023/08/30 03:11:55;;;;;;;89.70;50.07;;;16.40;91.80;;;;;;5036864;28;20173;-82
2023/08/30 03:14:21;;;;;;;88.97;49.33;;;16.40;91.20;;;;;;5037295;28;20225;-82
2023/08/30 03:16:47;;;;;;;89.93;54.43;;;16.40;90.50;;;;;;5037039;28;20401;-82
2023/08/30 03:19:13;;;;;;;89.67;52.23;;;16.30;90.70;;;;;;5036951;28;20193;-82
2023/08/30 03:21:38;;;;;;;86.00;48.77;;;16.30;91.00;;;;;;5037064;28;20625;-82
2023/08/30 03:24:04;;;;;;;89.07;54.47;;;16.30;89.40;;;;;;5037296;28;20407;-82
2023/08/30 03:26:30;;;;;;;89.13;50.80;;;16.30;86.40;;;;;;5037344;28;20164;-82
2023/08/30 03:28:55;;;;;;;90.53;52.07;;;16.30;86.90;;;;;;5037687;28;20924;-82
2023/08/30 03:31:22;;;;;;;92.03;53.13;;;16.20;86.60;;;;;;5037298;28;20177;-82
2023/08/30 03:33:48;;;;;;;89.93;52.50;;;16.20;88.60;;;;;;5037314;28;20173;-82
2023/08/30 03:36:16;;;;;;;89.07;48.87;;;16.10;89.60;;;;;;5037512;28;20441;-82
2023/08/30 03:38:46;;;;;;;87.37;48.13;;;16.10;88.30;;;;;;5038652;28;20415;-82
2023/08/30 03:41:12;;;;;;;95.07;48.77;;;16.10;88.90;;;;;;5037651;28;20479;-82
2023/08/30 03:43:39;;;;;;;92.20;52.97;;;16.00;90.30;;;;;;5037260;28;20945;-81
2023/08/30 03:46:04;;;;;;;88.37;48.43;;;16.00;90.30;;;;;;5036891;28;20423;-82
2023/08/30 03:48:31;;;;;;;86.00;43.53;;;16.00;91.00;;;;;;5036644;28;20419;-82
2023/08/30 03:50:58;;;;;;;91.30;52.27;;;16.00;90.60;;;;;;5036356;28;20184;-82
2023/08/30 03:53:24;;;;;;;88.73;51.43;;;16.00;90.60;;;;;;5019045;28;20439;-82
2023/08/30 03:55:52;;;;;;;89.27;49.63;;;16.00;90.50;;;;;;5036432;28;20433;-82
2023/08/30 03:58:18;;;;;;;90.20;53.50;;;15.90;90.80;;;;;;5036812;28;20400;-82
2023/08/30 04:00:44;;;;;;;91.90;51.07;;;15.90;90.80;;;;;;5036386;28;20449;-82
2023/08/30 04:03:10;;;;;;;88.83;45.30;;;15.80;91.80;;;;;;5036804;28;20842;-82
2023/08/30 04:05:37;;;;;;;89.50;51.60;;;15.80;92.00;;;;;;5036028;28;20168;-82
2023/08/30 04:08:06;;;;;;;87.97;43.17;;;15.90;91.10;;;;;;5035923;28;20458;-82
2023/08/30 04:10:39;;;;;;;88.70;39.77;;;15.80;91.60;;;;;;5036272;28;20938;-82
2023/08/30 04:13:06;;;;;;;89.10;50.73;;;15.80;92.00;;;;;;5036611;28;20498;-82
2023/08/30 04:15:37;;;;;;;87.97;48.93;;;15.80;91.30;;;;;;5018400;28;20858;-82
2023/08/30 04:18:04;;;;;;;91.70;56.57;;;15.80;91.10;;;;;;5035878;28;20400;-82
2023/08/30 04:20:32;;;;;;;83.80;38.53;;;15.70;91.70;;;;;;5036729;28;20948;-82
2023/08/30 04:22:59;;;;;;;90.10;42.20;;;15.70;92.60;;;;;;5036290;28;20942;-82
2023/08/30 04:25:25;;;;;;;85.97;44.47;;;15.60;92.70;;;;;;5036241;28;20395;-82
2023/08/30 04:27:51;;;;;;;89.23;48.23;;;15.70;92.80;;;;;;5036119;28;20458;-82
2023/08/30 04:30:17;;;;;;;87.63;49.53;;;15.70;91.90;;;;;;5036362;28;20215;-82
2023/08/30 04:32:42;;;;;;;91.10;52.03;;;15.70;90.60;;;;;;5036094;28;20169;-82
2023/08/30 04:35:09;;;;;;;90.80;48.67;;;15.70;89.10;;;;;;5035642;28;20410;-81
2023/08/30 04:37:35;;;;;;;89.43;50.53;;;15.60;90.60;;;;;;5035880;28;20178;-82
2023/08/30 04:40:00;;;;;;;87.17;48.00;;;15.60;89.60;;;;;;5035829;28;20430;-82
2023/08/30 04:42:26;;;;;;;92.07;53.53;;;15.60;90.30;;;;;;5036139;28;20674;-82
2023/08/30 04:44:54;;;;;;;91.93;59.33;;;15.60;86.70;;;;;;5035803;28;20158;-82
2023/08/30 04:47:20;;;;;;;90.97;55.23;;;15.60;86.00;;;;;;5035553;28;20169;-82
2023/08/30 04:49:50;;;;;;;92.50;53.27;;;15.50;86.90;;;;;;5018150;28;20517;-82
2023/08/30 04:52:16;;;;;;;91.37;52.80;;;15.50;87.70;;;;;;5035888;28;20161;-82
2023/08/30 04:54:42;;;;;;;90.63;48.47;;;15.50;85.40;;;;;;5036361;28;20459;-82
2023/08/30 04:57:08;;;;;;;91.17;55.17;;;15.50;86.70;;;;;;5035630;28;20717;-82
2023/08/30 04:59:34;;;;;;;88.50;48.13;;;15.50;87.70;;;;;;5035798;28;20459;-82
2023/08/30 05:01:59;;;;;;;88.33;48.30;;;15.40;88.60;;;;;;5035874;28;20586;-82
2023/08/30 05:04:25;;;;;;;86.90;46.30;;;15.40;89.00;;;;;;5037859;28;20172;-82
2023/08/30 05:06:51;;;;;;;86.27;47.53;;;15.40;90.00;;;;;;5039478;28;20525;-82
2023/08/30 05:09:16;;;;;;;96.63;58.67;;;15.40;90.10;;;;;;5039521;28;20639;-82
2023/08/30 05:11:42;;;;;;;89.50;49.33;;;15.40;90.30;;;;;;5038675;28;20238;-82
2023/08/30 05:14:12;;;;;;;89.03;47.90;;;15.40;91.40;;;;;;5038499;28;20254;-83
2023/08/30 05:16:38;;;;;;;88.30;45.50;;;15.30;94.00;;;;;;5020851;28;20160;-82
2023/08/30 05:19:03;;;;;;;91.30;56.57;;;15.20;96.40;;;;;;5020756;28;20411;-82
2023/08/30 05:21:29;;;;;;;90.07;52.43;;;15.20;98.20;;;;;;5038769;28;20700;-82
2023/08/30 05:23:55;;;;;;;91.87;57.73;;;15.20;99.90;;;;;;5020778;28;20202;-82
2023/08/30 05:26:20;;;;;;;88.57;50.53;;;15.30;99.30;;;;;;5038251;28;20166;-82
2023/08/30 05:28:46;;;;;;;88.93;50.43;;;15.40;99.10;;;;;;5021050;28;20167;-82
2023/08/30 05:31:11;;;;;;;89.80;49.60;;;15.40;99.90;;;;;;5039129;28;20538;-82
2023/08/30 05:33:37;;;;;;;91.50;54.73;;;15.40;99.90;;;;;;5038602;28;20179;-82
2023/08/30 05:36:03;;;;;;;91.70;51.13;;;15.40;99.90;;;;;;5038237;28;20169;-81
2023/08/30 05:38:29;;;;;;;87.60;52.13;;;15.40;99.90;;;;;;5038118;28;20167;-81
2023/08/30 05:40:54;;;;;;;90.57;52.67;;;15.30;99.90;;;;;;5038143;28;20444;-82
2023/08/30 05:43:20;;;;;;;90.67;49.37;;;15.40;99.90;;;;;;5038248;28;20188;-82
2023/08/30 05:45:45;;;;;;;87.93;46.73;;;15.40;99.90;;;;;;5038252;28;20575;-82
2023/08/30 05:48:12;;;;;;;88.07;49.30;;;15.50;99.90;;;;;;5038168;28;20173;-82
2023/08/30 05:50:37;;;;;;;89.93;45.73;;;15.50;99.90;;;;;;5037680;28;20265;-82
2023/08/30 05:53:03;;;;;;;86.03;39.93;;;15.50;99.90;;;;;;5038098;28;20935;-81
2023/08/30 05:55:29;;;;;;;88.63;43.33;;;15.50;99.90;;;;;;5037754;28;20178;-82
2023/08/30 05:57:55;;;;;;;85.33;40.07;;;15.60;99.90;;;;;;5038025;28;20894;-82
2023/08/30 06:00:21;;;;;;;84.90;38.63;;;15.60;99.90;;;;;;5020321;28;20195;-82
2023/08/30 06:02:47;;;;;;;91.77;40.00;;;15.50;99.90;;;;;;5020551;28;20968;-82
2023/08/30 06:05:13;;;;;;;90.63;41.63;;;15.60;99.90;;;;;;5038931;28;20389;-82
2023/08/30 06:07:38;;;;;;;92.80;46.53;;;15.60;99.90;;;;;;5038809;28;20159;-82
2023/08/30 06:10:04;;;;;;;90.43;43.73;;;15.50;99.90;;;;;;5038211;28;20182;-82
2023/08/30 06:12:30;;;;;;;84.40;37.90;;;15.50;99.90;;;;;;5038179;28;20170;-82
2023/08/30 06:14:56;;;;;;;84.67;33.03;;;15.50;99.90;;;;;;5037287;28;20817;-82
2023/08/30 06:17:21;;;;;;;84.97;37.33;;;15.60;99.90;;;;;;5039012;28;20166;-82
2023/08/30 06:19:48;;;;;;;84.40;35.83;;;15.70;99.90;;;;;;5037793;28;20832;-82
2023/08/30 06:22:13;;;;;;;84.93;35.90;;;15.70;99.90;;;;;;5038189;28;20187;-82
2023/08/30 06:24:39;;;;;;;83.40;31.47;;;15.70;99.90;;;;;;5037939;28;20447;-82
2023/08/30 06:27:05;;;;;;;86.83;36.83;;;15.80;99.90;;;;;;5037910;28;20407;-82
2023/08/30 06:29:31;;;;;;;82.80;32.00;;;15.80;99.90;;;;;;5037778;28;20550;-82
2023/08/30 06:31:58;;;;;;;82.27;32.03;;;15.80;99.90;;;;;;5037691;28;20188;-82
2023/08/30 06:34:24;;;;;;;82.50;31.83;;;15.90;99.90;;;;;;5019939;28;20483;-82
2023/08/30 06:36:49;;;;;;;87.37;30.97;;;15.90;99.90;;;;;;5019535;28;20509;-82
2023/08/30 06:39:15;;;;;;;86.07;31.83;;;16.00;99.90;;;;;;5019661;28;20162;-82
2023/08/30 06:41:40;;;;;;;82.83;29.70;;;16.10;99.90;;;;;;5037390;28;20175;-82
2023/08/30 06:44:06;;;;;;;82.13;29.70;;;16.10;99.90;;;;;;5037668;28;20170;-82
2023/08/30 06:46:32;;;;;;;89.00;28.80;;;16.20;99.90;;;;;;5019757;28;20175;-82
2023/08/30 06:48:57;;;;;;;84.40;26.93;;;16.30;99.90;;;;;;5037692;28;20511;-82
2023/08/30 06:51:23;;;;;;;81.70;31.53;;;16.30;99.90;;;;;;5037464;28;20215;-82
2023/08/30 06:54:00;;;;;;;84.63;33.23;;;16.20;99.90;;;;;;5018812;28;20176;-82
2023/08/30 06:56:27;;;;;;;83.83;32.77;;;16.20;99.90;;;;;;5019283;28;20178;-82
2023/08/30 06:58:52;;;;;;;90.60;34.03;;;16.20;99.90;;;;;;5037474;28;20526;-82
2023/08/30 07:01:18;;;;;;;88.37;37.20;;;16.20;99.90;;;;;;5036860;28;20468;-82
2023/08/30 07:03:44;;;;;;;86.33;37.00;;;16.20;96.80;;;;;;5036689;28;20198;-82
2023/08/30 07:06:10;;;;;;;88.87;38.23;;;16.10;94.70;;;;;;5036403;28;20161;-81
2023/08/30 07:08:35;;;;;;;88.50;39.50;;;16.10;95.40;;;;;;5036820;28;20158;-81
2023/08/30 07:11:01;;;;;;;83.60;35.70;;;16.20;94.50;;;;;;5036466;28;20960;-82
2023/08/30 07:13:27;;;;;;;85.20;34.40;;;16.20;95.40;;;;;;5036731;28;20195;-81
2023/08/30 07:15:53;;;;;;;84.60;37.50;;;16.30;94.20;;;;;;5036771;28;20180;-81
2023/08/30 07:18:19;;;;;;;81.53;34.40;;;16.30;92.70;;;;;;5036727;28;20636;-82
2023/08/30 07:20:45;;;;;;;83.77;33.50;;;16.40;93.60;;;;;;5036395;28;20427;-82
2023/08/30 07:23:13;;;;;;;80.80;29.97;;;16.40;90.70;;;;;;5018421;28;20257;-81
2023/08/30 07:25:39;;;;;;;83.47;32.37;;;16.40;90.00;;;;;;5017756;28;20230;-81
2023/08/30 07:28:05;;;;;;;86.57;35.47;;;16.40;87.50;;;;;;5036938;28;20483;-82
2023/08/30 07:30:31;;;;;;;83.63;33.03;;;16.40;88.00;;;;;;5036567;28;20244;-81
2023/08/30 07:32:57;;;;;;;82.90;31.60;;;16.50;90.30;;;;;;5036301;28;20412;-82
2023/08/30 07:35:22;;;;;;;81.67;32.43;;;16.70;87.00;;;;;;5036770;28;20156;-81
2023/08/30 07:37:48;;;;;;;92.43;48.07;;;16.80;82.50;;;;;;5036316;28;20169;-82
2023/08/30 07:40:14;;;;;;;85.17;41.10;;;16.80;81.70;;;;;;5036361;28;20436;-81
2023/08/30 07:42:40;;;;;;;89.37;43.30;;;16.90;70.00;;;;;;5036074;28;20173;-82
2023/08/30 07:45:06;;;;;;;90.60;48.73;;;16.90;76.60;;;;;;5018635;28;20519;-82
2023/08/30 07:47:55;;;;;;;88.60;43.00;;;16.90;74.80;;;;;;5036811;28;20961;-82
2023/08/30 07:50:21;;;;;;;87.23;45.37;;;17.10;71.80;;;;;;5035704;28;20440;-81
2023/08/30 07:53:21;;;;;;;;;;;;;;;;;;;;;
2023/08/30 07:55:50;;;;;;;79.10;25.97;;;17.20;54.20;;;;;;4969342;28;20185;-82
2023/08/30 07:58:19;;;;;;;82.83;34.67;;;17.30;46.10;;;;;;5036251;28;20464;-81
2023/08/30 08:01:04;;;;;;;81.67;31.77;;;17.30;44.50;;;;;;5018254;28;20440;-81
2023/08/30 08:03:29;;;;;;;80.30;30.80;;;17.40;44.40;;;;;;5036004;28;20463;-82
2023/08/30 08:05:57;;;;;;;80.00;26.83;;;17.60;42.20;;;;;;5036839;28;20397;-81
2023/08/30 08:08:23;;;;;;;80.60;30.77;;;17.70;33.40;;;;;;5036535;28;20161;-82
2023/08/30 08:10:48;;;;;;;78.13;27.07;;;17.90;42.00;;;;;;5036915;28;20420;-82
2023/08/30 08:13:14;;;;;;;83.80;44.47;;;18.10;33.90;;;;;;5018904;28;20165;-82
2023/08/30 08:15:40;;;;;;;85.30;40.63;;;18.10;18.60;;;;;;5035789;28;20169;-81
2023/08/30 08:18:05;;;;;;;80.33;24.33;;;18.20;14.10;;;;;;5037082;28;20173;-83
2023/08/30 08:20:36;;;;;;;79.03;17.83;;;18.30;6.90;;;;;;5036777;28;20196;-82
2023/08/30 08:23:03;;;;;;;79.27;25.73;;;18.50;5.90;;;;;;5036275;28;20176;-83
2023/08/30 08:25:28;;;;;;;75.77;17.00;;;18.60;3.70;;;;;;5036498;28;20400;-82
2023/08/30 08:27:54;;;;;;;75.23;7.43;;;18.80;6.10;;;;;;5036487;28;20439;-82
2023/08/30 08:30:22;;;;;;;76.17;9.20;;;19.00;1.00;;;;;;5036064;28;20661;-82
2023/08/30 08:32:48;;;;;;;72.40;6.07;;;19.20;1.00;;;;;;5036233;28;20161;-82
2023/08/30 08:35:14;;;;;;;72.60;7.50;;;19.20;1.00;;;;;;5036063;28;20453;-82
2023/08/30 08:37:40;;;;;;;80.10;9.27;;;19.30;1.00;;;;;;5018466;28;20318;-82
2023/08/30 08:40:08;;;;;;;78.57;8.00;;;19.40;1.00;;;;;;5039693;28;20439;-82
2023/08/30 08:42:35;;;;;;;73.60;7.33;;;19.50;1.00;;;;;;5040013;28;20545;-82
2023/08/30 08:45:04;;;;;;;74.43;8.60;;;19.50;1.00;;;;;;5039484;28;20399;-82
2023/08/30 08:47:31;;;;;;;72.73;8.80;;;19.60;1.00;;;;;;5021957;28;20404;-82
2023/08/30 08:49:57;;;;;;;70.97;6.83;;;19.50;1.00;;;;;;5040487;28;20431;-82
2023/08/30 08:52:26;;;;;;;70.00;5.67;;;19.50;1.00;;;;;;5040064;28;20487;-82
2023/08/30 08:54:54;;;;;;;72.17;4.93;;;19.50;1.00;;;;;;5040761;28;20408;-82
2023/08/30 08:57:20;;;;;;;71.87;4.70;;;19.60;1.00;;;;;;5039732;28;20406;-82
2023/08/30 08:59:46;;;;;;;70.10;4.67;;;19.60;1.00;;;;;;5039350;28;20416;-82
2023/08/30 09:02:14;;;;;;;70.77;5.50;;;19.60;1.00;;;;;;5021031;28;20456;-82
2023/08/30 09:04:40;;;;;;;71.47;5.23;;;19.70;1.00;;;;;;5039875;28;20165;-83
2023/08/30 09:07:06;;;;;;;70.30;5.00;;;19.80;1.00;;;;;;5021020;28;20453;-82
2023/08/30 09:09:34;;;;;;;70.40;4.93;;;20.00;1.00;;;;;;5038907;28;20446;-82
2023/08/30 09:12:00;;;;;;;73.70;4.70;;;20.20;1.00;;;;;;5022040;28;20404;-82
2023/08/30 09:14:25;;;;;;;70.37;5.00;;;20.20;1.00;;;;;;5039488;28;20904;-83
2023/08/30 09:17:02;;;;;;;79.07;6.00;;;20.20;1.00;;;;;;5039239;28;20438;-82
2023/08/30 09:19:28;;;;;;;72.80;7.17;;;20.20;1.00;;;;;;5039052;28;20245;-82
2023/08/30 09:21:58;;;;;;;72.47;9.23;;;19.90;1.00;;;;;;5020810;28;20408;-81
2023/08/30 09:24:38;;;;;;;73.10;9.27;;;19.80;1.00;;;;;;5038683;28;20381;-82
2023/08/30 09:27:04;;;;;;;71.63;9.17;;;19.80;1.00;;;;;;5038569;28;20411;-81
2023/08/30 09:29:29;;;;;;;72.23;9.50;;;19.80;1.00;;;;;;5020704;28;20425;-82
2023/08/30 09:31:55;;;;;;;73.20;9.27;;;19.90;1.00;;;;;;5020823;28;20169;-82
2023/08/30 09:34:25;;;;;;;73.37;9.30;;;19.90;1.00;;;;;;5020658;28;20170;-82
2023/08/30 09:37:01;;;;;;;;;;;;;;;;;;;;;
2023/08/30 09:39:33;;;;;;;71.70;8.77;;;19.90;1.00;;;;;;5038890;28;20414;-82
2023/08/30 09:41:59;;;;;;;73.87;11.97;;;19.90;1.00;;;;;;5039221;28;20470;-83
2023/08/30 09:44:29;;;;;;;73.57;10.00;;;19.80;1.00;;;;;;5038655;28;20919;-82
2023/08/30 09:46:56;;;;;;;73.80;9.07;;;19.80;1.00;;;;;;5039020;28;20181;-83
2023/08/30 09:49:26;;;;;;;74.47;8.60;;;19.80;1.00;;;;;;5039001;28;20864;-82
2023/08/30 09:51:54;;;;;;;73.27;9.93;;;19.80;1.00;;;;;;5038730;28;20408;-82
2023/08/30 09:54:24;;;;;;;73.00;9.27;;;19.70;1.00;;;;;;5021038;28;20407;-82
2023/08/30 09:56:52;;;;;;;72.13;8.70;;;19.70;1.00;;;;;;5020733;28;20410;-82
2023/08/30 09:59:19;;;;;;;72.80;10.10;;;19.70;1.00;;;;;;5038673;28;20400;-82
2023/08/30 10:01:48;;;;;;;72.40;9.80;;;19.50;1.00;;;;;;5038793;28;20397;-82
2023/08/30 10:04:14;;;;;;;71.70;9.10;;;19.30;2.50;;;;;;5038321;28;20408;-82
2023/08/30 10:06:40;;;;;;;71.70;8.30;;;19.00;3.30;;;;;;5038320;28;20902;-82
2023/08/30 10:09:08;;;;;;;70.33;8.30;;;19.00;5.40;;;;;;5020720;28;20404;-82
2023/08/30 10:11:35;;;;;;;70.70;9.57;;;18.90;12.70;;;;;;5037985;28;20401;-82
2023/08/30 10:14:03;;;;;;;75.43;17.67;;;18.90;20.60;;;;;;5020220;28;20439;-83
2023/08/30 10:16:41;;;;;;;74.93;19.73;;;18.90;23.30;;;;;;5020274;28;20443;-82
2023/08/30 10:19:32;;;;;;;72.17;10.07;;;18.90;27.30;;;;;;5038162;28;20399;-82
2023/08/30 10:22:08;;;;;;;72.53;10.13;;;18.90;25.70;;;;;;5037717;28;20459;-82
2023/08/30 10:25:06;;;;;;;73.17;13.33;;;18.90;26.00;;;;;;5019583;28;20507;-82
2023/08/30 10:27:34;;;;;;;85.37;39.50;;;19.00;30.40;;;;;;5035948;28;20442;-82
2023/08/30 10:30:03;;;;;;;76.70;15.23;;;19.00;35.20;;;;;;5018449;28;20474;-81
2023/08/30 10:32:29;;;;;;;79.43;19.63;;;19.00;33.30;;;;;;5018418;28;20420;-82
2023/08/30 10:34:54;;;;;;;72.87;8.77;;;18.90;32.80;;;;;;5036281;28;20465;-81
2023/08/30 10:37:26;;;;;;;80.47;27.63;;;19.00;28.10;;;;;;5036482;28;20528;-81
2023/08/30 10:39:58;;;;;;;75.53;20.27;;;19.00;39.70;;;;;;5037391;28;20572;-83
2023/08/30 10:42:24;;;;;;;87.57;42.87;;;19.00;30.80;;;;;;5037503;28;20515;-83
2023/08/30 10:44:57;;;;;;;79.07;30.30;;;19.10;34.40;;;;;;5019627;28;20490;-82
2023/08/30 10:47:37;;;;;;;72.10;11.63;;;19.10;30.70;;;;;;5037539;28;20162;-82
2023/08/30 10:50:11;;;;;;;72.40;9.73;;;19.20;23.50;;;;;;5037566;28;20432;-82
2023/08/30 10:52:36;;;;;;;69.57;7.20;;;19.20;23.00;;;;;;5037422;28;20910;-82
2023/08/30 10:55:28;;;;;;;75.10;7.27;;;19.30;20.60;;;;;;5037199;28;20396;-82
2023/08/30 10:58:06;;;;;;;70.50;7.50;;;19.50;15.10;;;;;;5032328;28;20580;-83
2023/08/30 11:00:33;;;;;;;70.20;7.20;;;19.60;2.50;;;;;;5036200;28;20792;-82
2023/08/30 11:02:59;;;;;;;70.03;7.90;;;19.50;4.30;;;;;;5036635;28;20450;-82
2023/08/30 11:05:26;;;;;;;69.67;7.00;;;19.40;1.00;;;;;;5036505;28;20388;-82
2023/08/30 11:07:52;;;;;;;71.33;7.70;;;19.20;5.80;;;;;;5036395;28;20169;-82
2023/08/30 11:10:19;;;;;;;78.70;24.03;;;19.10;19.60;;;;;;5036307;28;20753;-82
2023/08/30 11:12:46;;;;;;;90.67;56.13;;;19.10;35.30;;;;;;5037331;28;20914;-83
2023/08/30 11:15:15;;;;;;;92.27;52.40;;;18.80;53.50;;;;;;5036425;28;20483;-83
2023/08/30 11:17:45;;;;;;;87.13;43.33;;;18.70;63.20;;;;;;5018871;28;20416;-82
2023/08/30 11:20:12;;;;;;;87.80;38.37;;;18.60;74.60;;;;;;5018729;28;20491;-83
2023/08/30 11:22:42;;;;;;;78.70;33.67;;;18.50;93.40;;;;;;5036525;28;20456;-82
2023/08/30 11:25:09;;;;;;;76.50;28.10;;;18.30;96.70;;;;;;5036541;28;20408;-82
2023/08/30 11:27:34;;;;;;;77.87;29.13;;;18.20;99.90;;;;;;5018460;28;20466;-84
2023/08/30 11:30:05;;;;;;;77.83;31.37;;;18.10;99.90;;;;;;5036207;28;20835;-84
2023/08/30 11:32:44;;;;;;;80.20;34.10;;;18.00;99.90;;;;;;5036269;28;20177;-83
2023/08/30 11:35:10;;;;;;;78.10;31.53;;;18.00;99.90;;;;;;5035775;28;20404;-84
2023/08/30 11:37:36;;;;;;;78.10;31.50;;;18.00;99.90;;;;;;5035632;28;20404;-83
2023/08/30 11:40:03;;;;;;;77.83;28.70;;;18.00;99.90;;;;;;5036136;28;20234;-83
2023/08/30 11:42:31;;;;;;;75.57;25.20;;;18.00;99.90;;;;;;5017729;28;20189;-83
2023/08/30 11:44:59;;;;;;;74.17;20.27;;;18.00;99.90;;;;;;5035634;28;20458;-83
2023/08/30 11:47:26;;;;;;;75.70;19.43;;;18.00;99.90;;;;;;5018600;28;20466;-83
2023/08/30 11:49:58;;;;;;;72.10;15.37;;;18.00;99.90;;;;;;5036085;28;20545;-83
2023/08/30 11:52:26;;;;;;;70.90;12.97;;;18.00;99.90;;;;;;5018295;28;20465;-83
2023/08/30 11:54:55;;;;;;;74.03;17.00;;;18.00;99.90;;;;;;5035801;28;20438;-83
2023/08/30 11:57:21;;;;;;;73.73;16.73;;;18.20;99.90;;;;;;5017900;28;20426;-84
2023/08/30 11:59:47;;;;;;;74.30;18.67;;;18.20;99.90;;;;;;5036295;28;20507;-83
2023/08/30 12:02:14;;;;;;;73.97;20.37;;;18.30;99.90;;;;;;5036044;28;20452;-83
2023/08/30 12:04:45;;;;;;;74.40;23.57;;;18.40;99.90;;;;;;5036370;28;20910;-83
2023/08/30 12:07:22;;;;;;;78.30;23.40;;;18.40;99.90;;;;;;5036534;28;20470;-83
2023/08/30 12:09:48;;;;;;;76.27;26.43;;;18.40;99.90;;;;;;5035620;28;20418;-83
2023/08/30 12:12:16;;;;;;;75.50;25.90;;;18.40;99.90;;;;;;5036925;28;20467;-83
2023/08/30 12:14:43;;;;;;;76.77;24.43;;;18.40;99.90;;;;;;5039979;28;20211;-83
2023/08/30 12:17:12;;;;;;;76.00;22.27;;;18.50;99.90;;;;;;5040060;28;20414;-83
2023/08/30 12:19:40;;;;;;;74.70;23.67;;;18.50;99.90;;;;;;5039953;28;20423;-84
2023/08/30 12:22:07;;;;;;;76.00;23.90;;;18.50;99.90;;;;;;5022045;28;20463;-83
2023/08/30 12:24:45;;;;;;;79.83;24.97;;;18.50;99.90;;;;;;5039510;28;20404;-82
2023/08/30 12:27:10;;;;;;;76.37;23.77;;;18.60;99.90;;;;;;5039806;28;20772;-83
2023/08/30 12:29:36;;;;;;;75.37;22.77;;;18.40;99.90;;;;;;5021922;28;20432;-84
2023/08/30 12:32:02;;;;;;;76.10;24.43;;;18.40;99.90;;;;;;5021845;28;20573;-84
2023/08/30 12:34:28;;;;;;;73.77;20.23;;;18.40;99.90;;;;;;5040291;28;20165;-84